sensor_id;sensor_type;location;lat;lon;timestamp;P1;durP1;ratioP1;P2;durP2;ratioP2
65552;SDS011;72126;51.560;14.368;2024-03-25T00:02:12;0.73;;;0.73;;
65552;SDS011;72126;51.560;14.368;2024-03-25T00:04:37;0.70;;;0.70;;
65552;SDS011;72126;51.560;14.368;2024-03-25T00:07:02;0.87;;;0.73;;
65552;SDS011;72126;51.560;14.368;2024-03-25T00:09:28;0.60;;;0.60;;
65552;SDS011;72126;51.560;14.368;2024-03-25T00:11:53;0.60;;;0.60;;
65552;SDS011;72126;51.560;14.368;2024-03-25T00:14:18;0.70;;;0.60;;
65552;SDS011;72126;51.560;14.368;2024-03-25T00:16:43;1.00;;;0.70;;
65552;SDS011;72126;51.560;14.368;2024-03-25T00:19:08;0.70;;;0.70;;
65552;SDS011;72126;51.560;14.368;2024-03-25T00:21:34;0.67;;;0.67;;
65552;SDS011;72126;51.560;14.368;2024-03-25T00:23:59;0.60;;;0.60;;
65552;SDS011;72126;51.560;14.368;2024-03-25T00:26:24;0.70;;;0.70;;
65552;SDS011;72126;51.560;14.368;2024-03-25T00:28:49;0.80;;;0.80;;
65552;SDS011;72126;51.560;14.368;2024-03-25T00:31:14;0.60;;;0.60;;
65552;SDS011;72126;51.560;14.368;2024-03-25T00:33:40;0.60;;;0.60;;
65552;SDS011;72126;51.560;14.368;2024-03-25T00:36:05;1.67;;;0.60;;
65552;SDS011;72126;51.560;14.368;2024-03-25T00:38:30;0.60;;;0.60;;
65552;SDS011;72126;51.560;14.368;2024-03-25T00:40:55;1.03;;;0.80;;
65552;SDS011;72126;51.560;14.368;2024-03-25T00:43:21;0.70;;;0.70;;
65552;SDS011;72126;51.560;14.368;2024-03-25T00:45:46;0.50;;;0.50;;
65552;SDS011;72126;51.560;14.368;2024-03-25T00:48:11;2.37;;;0.80;;
65552;SDS011;72126;51.560;14.368;2024-03-25T00:50:36;0.80;;;0.77;;
65552;SDS011;72126;51.560;14.368;2024-03-25T00:53:01;0.70;;;0.70;;
65552;SDS011;72126;51.560;14.368;2024-03-25T00:55:27;1.00;;;0.70;;
65552;SDS011;72126;51.560;14.368;2024-03-25T00:57:52;1.03;;;0.80;;
65552;SDS011;72126;51.560;14.368;2024-03-25T01:00:17;1.77;;;0.90;;
65552;SDS011;72126;51.560;14.368;2024-03-25T01:02:43;0.50;;;0.50;;
65552;SDS011;72126;51.560;14.368;2024-03-25T01:05:08;0.73;;;0.70;;
65552;SDS011;72126;51.560;14.368;2024-03-25T01:07:33;1.27;;;0.70;;
65552;SDS011;72126;51.560;14.368;2024-03-25T01:09:58;0.60;;;0.60;;
65552;SDS011;72126;51.560;14.368;2024-03-25T01:12:24;0.77;;;0.63;;
65552;SDS011;72126;51.560;14.368;2024-03-25T01:14:50;0.60;;;0.60;;
65552;SDS011;72126;51.560;14.368;2024-03-25T01:17:15;0.77;;;0.70;;
65552;SDS011;72126;51.560;14.368;2024-03-25T01:19:40;0.53;;;0.53;;
65552;SDS011;72126;51.560;14.368;2024-03-25T01:22:05;0.60;;;0.60;;
65552;SDS011;72126;51.560;14.368;2024-03-25T01:24:30;0.63;;;0.63;;
65552;SDS011;72126;51.560;14.368;2024-03-25T01:26:56;0.70;;;0.70;;
65552;SDS011;72126;51.560;14.368;2024-03-25T01:29:21;0.73;;;0.70;;
65552;SDS011;72126;51.560;14.368;2024-03-25T01:31:46;0.70;;;0.70;;
65552;SDS011;72126;51.560;14.368;2024-03-25T01:34:11;0.80;;;0.73;;
65552;SDS011;72126;51.560;14.368;2024-03-25T01:36:36;0.60;;;0.60;;
65552;SDS011;72126;51.560;14.368;2024-03-25T01:39:02;0.73;;;0.60;;
65552;SDS011;72126;51.560;14.368;2024-03-25T01:41:27;1.23;;;0.65;;
65552;SDS011;72126;51.560;14.368;2024-03-25T01:43:53;0.50;;;0.50;;
65552;SDS011;72126;51.560;14.368;2024-03-25T01:46:18;0.97;;;0.80;;
65552;SDS011;72126;51.560;14.368;2024-03-25T01:48:44;0.60;;;0.60;;
65552;SDS011;72126;51.560;14.368;2024-03-25T01:51:10;0.60;;;0.60;;
65552;SDS011;72126;51.560;14.368;2024-03-25T01:53:37;0.60;;;0.60;;
65552;SDS011;72126;51.560;14.368;2024-03-25T01:56:04;0.70;;;0.70;;
65552;SDS011;72126;51.560;14.368;2024-03-25T01:58:29;0.80;;;0.80;;
65552;SDS011;72126;51.560;14.368;2024-03-25T02:00:54;1.20;;;0.57;;
65552;SDS011;72126;51.560;14.368;2024-03-25T02:03:20;0.77;;;0.70;;
65552;SDS011;72126;51.560;14.368;2024-03-25T02:05:46;0.98;;;0.55;;
65552;SDS011;72126;51.560;14.368;2024-03-25T02:08:15;0.55;;;0.55;;
65552;SDS011;72126;51.560;14.368;2024-03-25T02:10:41;1.23;;;0.85;;
65552;SDS011;72126;51.560;14.368;2024-03-25T02:13:07;0.80;;;0.80;;
65552;SDS011;72126;51.560;14.368;2024-03-25T02:15:32;0.57;;;0.57;;
65552;SDS011;72126;51.560;14.368;2024-03-25T02:17:58;1.40;;;0.85;;
65552;SDS011;72126;51.560;14.368;2024-03-25T02:20:23;0.77;;;0.60;;
65552;SDS011;72126;51.560;14.368;2024-03-25T02:22:49;1.63;;;0.80;;
65552;SDS011;72126;51.560;14.368;2024-03-25T02:25:15;0.50;;;0.50;;
65552;SDS011;72126;51.560;14.368;2024-03-25T02:27:41;0.68;;;0.65;;
65552;SDS011;72126;51.560;14.368;2024-03-25T02:30:07;0.80;;;0.70;;
65552;SDS011;72126;51.560;14.368;2024-03-25T02:32:34;0.57;;;0.57;;
65552;SDS011;72126;51.560;14.368;2024-03-25T02:35:00;0.82;;;0.73;;
65552;SDS011;72126;51.560;14.368;2024-03-25T02:37:29;1.13;;;0.70;;
65552;SDS011;72126;51.560;14.368;2024-03-25T02:39:55;1.05;;;0.70;;
65552;SDS011;72126;51.560;14.368;2024-03-25T02:42:23;0.70;;;0.70;;
65552;SDS011;72126;51.560;14.368;2024-03-25T02:44:49;0.65;;;0.65;;
65552;SDS011;72126;51.560;14.368;2024-03-25T02:47:15;0.60;;;0.52;;
65552;SDS011;72126;51.560;14.368;2024-03-25T02:49:40;0.70;;;0.70;;
65552;SDS011;72126;51.560;14.368;2024-03-25T02:52:05;0.97;;;0.60;;
65552;SDS011;72126;51.560;14.368;2024-03-25T02:54:30;0.73;;;0.73;;
65552;SDS011;72126;51.560;14.368;2024-03-25T02:56:56;0.87;;;0.53;;
65552;SDS011;72126;51.560;14.368;2024-03-25T02:59:21;0.55;;;0.52;;
65552;SDS011;72126;51.560;14.368;2024-03-25T03:01:46;1.00;;;0.60;;
65552;SDS011;72126;51.560;14.368;2024-03-25T03:04:11;0.60;;;0.60;;
65552;SDS011;72126;51.560;14.368;2024-03-25T03:06:37;0.77;;;0.70;;
65552;SDS011;72126;51.560;14.368;2024-03-25T03:09:02;0.47;;;0.47;;
65552;SDS011;72126;51.560;14.368;2024-03-25T03:11:27;0.90;;;0.70;;
65552;SDS011;72126;51.560;14.368;2024-03-25T03:13:52;0.70;;;0.70;;
65552;SDS011;72126;51.560;14.368;2024-03-25T03:16:17;0.60;;;0.60;;
65552;SDS011;72126;51.560;14.368;2024-03-25T03:18:43;0.93;;;0.73;;
65552;SDS011;72126;51.560;14.368;2024-03-25T03:21:08;0.60;;;0.60;;
65552;SDS011;72126;51.560;14.368;2024-03-25T03:23:34;0.70;;;0.70;;
65552;SDS011;72126;51.560;14.368;2024-03-25T03:25:59;0.60;;;0.60;;
65552;SDS011;72126;51.560;14.368;2024-03-25T03:28:25;0.70;;;0.70;;
65552;SDS011;72126;51.560;14.368;2024-03-25T03:30:50;0.60;;;0.60;;
65552;SDS011;72126;51.560;14.368;2024-03-25T03:33:16;0.50;;;0.50;;
65552;SDS011;72126;51.560;14.368;2024-03-25T03:35:42;0.50;;;0.50;;
65552;SDS011;72126;51.560;14.368;2024-03-25T03:38:07;0.60;;;0.57;;
65552;SDS011;72126;51.560;14.368;2024-03-25T03:40:32;0.60;;;0.60;;
65552;SDS011;72126;51.560;14.368;2024-03-25T03:42:58;0.63;;;0.63;;
65552;SDS011;72126;51.560;14.368;2024-03-25T03:45:24;0.50;;;0.50;;
65552;SDS011;72126;51.560;14.368;2024-03-25T03:47:49;0.50;;;0.50;;
65552;SDS011;72126;51.560;14.368;2024-03-25T03:50:15;0.60;;;0.60;;
65552;SDS011;72126;51.560;14.368;2024-03-25T03:52:40;0.80;;;0.70;;
65552;SDS011;72126;51.560;14.368;2024-03-25T03:55:05;0.53;;;0.53;;
65552;SDS011;72126;51.560;14.368;2024-03-25T03:57:31;0.82;;;0.73;;
65552;SDS011;72126;51.560;14.368;2024-03-25T03:59:56;0.60;;;0.60;;
65552;SDS011;72126;51.560;14.368;2024-03-25T04:02:22;0.77;;;0.60;;
65552;SDS011;72126;51.560;14.368;2024-03-25T04:04:47;0.60;;;0.60;;
65552;SDS011;72126;51.560;14.368;2024-03-25T04:07:12;0.63;;;0.63;;
65552;SDS011;72126;51.560;14.368;2024-03-25T04:09:37;0.57;;;0.57;;
65552;SDS011;72126;51.560;14.368;2024-03-25T04:12:03;0.67;;;0.60;;
65552;SDS011;72126;51.560;14.368;2024-03-25T04:14:28;0.70;;;0.70;;
65552;SDS011;72126;51.560;14.368;2024-03-25T04:16:53;1.33;;;0.90;;
65552;SDS011;72126;51.560;14.368;2024-03-25T04:19:19;1.10;;;0.60;;
65552;SDS011;72126;51.560;14.368;2024-03-25T04:21:45;0.60;;;0.60;;
65552;SDS011;72126;51.560;14.368;2024-03-25T04:24:10;0.77;;;0.77;;
65552;SDS011;72126;51.560;14.368;2024-03-25T04:26:35;0.60;;;0.60;;
65552;SDS011;72126;51.560;14.368;2024-03-25T04:29:00;0.57;;;0.57;;
65552;SDS011;72126;51.560;14.368;2024-03-25T04:31:25;0.70;;;0.70;;
65552;SDS011;72126;51.560;14.368;2024-03-25T04:33:51;0.70;;;0.70;;
65552;SDS011;72126;51.560;14.368;2024-03-25T04:36:16;0.70;;;0.70;;
65552;SDS011;72126;51.560;14.368;2024-03-25T04:38:41;0.70;;;0.70;;
65552;SDS011;72126;51.560;14.368;2024-03-25T04:41:06;0.50;;;0.50;;
65552;SDS011;72126;51.560;14.368;2024-03-25T04:43:31;0.60;;;0.60;;
65552;SDS011;72126;51.560;14.368;2024-03-25T04:46:00;0.70;;;0.70;;
65552;SDS011;72126;51.560;14.368;2024-03-25T04:48:26;0.93;;;0.80;;
65552;SDS011;72126;51.560;14.368;2024-03-25T04:50:51;0.77;;;0.77;;
65552;SDS011;72126;51.560;14.368;2024-03-25T04:53:16;1.17;;;0.70;;
65552;SDS011;72126;51.560;14.368;2024-03-25T04:55:41;0.57;;;0.57;;
65552;SDS011;72126;51.560;14.368;2024-03-25T04:58:07;0.53;;;0.53;;
65552;SDS011;72126;51.560;14.368;2024-03-25T05:00:32;0.63;;;0.63;;
65552;SDS011;72126;51.560;14.368;2024-03-25T05:02:57;0.60;;;0.60;;
65552;SDS011;72126;51.560;14.368;2024-03-25T05:05:22;0.70;;;0.70;;
65552;SDS011;72126;51.560;14.368;2024-03-25T05:07:47;0.97;;;0.80;;
65552;SDS011;72126;51.560;14.368;2024-03-25T05:10:12;0.77;;;0.67;;
65552;SDS011;72126;51.560;14.368;2024-03-25T05:12:38;0.70;;;0.70;;
65552;SDS011;72126;51.560;14.368;2024-03-25T05:15:03;0.65;;;0.60;;
65552;SDS011;72126;51.560;14.368;2024-03-25T05:17:28;0.70;;;0.70;;
65552;SDS011;72126;51.560;14.368;2024-03-25T05:19:54;0.47;;;0.47;;
65552;SDS011;72126;51.560;14.368;2024-03-25T05:22:19;1.07;;;0.60;;
65552;SDS011;72126;51.560;14.368;2024-03-25T05:24:44;0.97;;;0.70;;
65552;SDS011;72126;51.560;14.368;2024-03-25T05:27:09;0.73;;;0.73;;
65552;SDS011;72126;51.560;14.368;2024-03-25T05:29:34;0.50;;;0.50;;
65552;SDS011;72126;51.560;14.368;2024-03-25T05:32:00;0.70;;;0.70;;
65552;SDS011;72126;51.560;14.368;2024-03-25T05:34:26;0.60;;;0.60;;
65552;SDS011;72126;51.560;14.368;2024-03-25T05:36:53;0.50;;;0.50;;
65552;SDS011;72126;51.560;14.368;2024-03-25T05:39:18;0.98;;;0.80;;
65552;SDS011;72126;51.560;14.368;2024-03-25T05:41:44;0.70;;;0.65;;
65552;SDS011;72126;51.560;14.368;2024-03-25T05:44:09;0.60;;;0.60;;
65552;SDS011;72126;51.560;14.368;2024-03-25T05:46:36;1.88;;;0.85;;
65552;SDS011;72126;51.560;14.368;2024-03-25T05:49:01;0.63;;;0.63;;
65552;SDS011;72126;51.560;14.368;2024-03-25T05:51:27;1.08;;;0.70;;
65552;SDS011;72126;51.560;14.368;2024-03-25T05:53:53;0.82;;;0.80;;
65552;SDS011;72126;51.560;14.368;2024-03-25T05:56:18;1.93;;;0.70;;
65552;SDS011;72126;51.560;14.368;2024-03-25T05:58:43;0.70;;;0.70;;
65552;SDS011;72126;51.560;14.368;2024-03-25T06:01:08;0.77;;;0.70;;
65552;SDS011;72126;51.560;14.368;2024-03-25T06:03:33;0.73;;;0.73;;
65552;SDS011;72126;51.560;14.368;2024-03-25T06:05:58;0.80;;;0.80;;
65552;SDS011;72126;51.560;14.368;2024-03-25T06:08:24;0.60;;;0.60;;
65552;SDS011;72126;51.560;14.368;2024-03-25T06:10:49;0.60;;;0.60;;
65552;SDS011;72126;51.560;14.368;2024-03-25T06:13:14;0.95;;;0.85;;
65552;SDS011;72126;51.560;14.368;2024-03-25T06:15:39;0.77;;;0.77;;
65552;SDS011;72126;51.560;14.368;2024-03-25T06:18:04;0.53;;;0.53;;
65552;SDS011;72126;51.560;14.368;2024-03-25T06:20:30;1.25;;;0.70;;
65552;SDS011;72126;51.560;14.368;2024-03-25T06:22:55;0.70;;;0.70;;
65552;SDS011;72126;51.560;14.368;2024-03-25T06:25:20;1.40;;;0.70;;
65552;SDS011;72126;51.560;14.368;2024-03-25T06:27:45;0.90;;;0.63;;
65552;SDS011;72126;51.560;14.368;2024-03-25T06:30:11;0.68;;;0.68;;
65552;SDS011;72126;51.560;14.368;2024-03-25T06:32:36;1.42;;;0.68;;
65552;SDS011;72126;51.560;14.368;2024-03-25T06:35:03;0.70;;;0.70;;
65552;SDS011;72126;51.560;14.368;2024-03-25T06:37:28;0.80;;;0.73;;
65552;SDS011;72126;51.560;14.368;2024-03-25T06:39:54;0.60;;;0.60;;
65552;SDS011;72126;51.560;14.368;2024-03-25T06:42:19;1.80;;;0.73;;
65552;SDS011;72126;51.560;14.368;2024-03-25T06:44:44;0.70;;;0.70;;
65552;SDS011;72126;51.560;14.368;2024-03-25T06:47:09;1.02;;;0.60;;
65552;SDS011;72126;51.560;14.368;2024-03-25T06:49:34;0.60;;;0.60;;
65552;SDS011;72126;51.560;14.368;2024-03-25T06:52:00;0.60;;;0.60;;
65552;SDS011;72126;51.560;14.368;2024-03-25T06:54:25;0.93;;;0.83;;
65552;SDS011;72126;51.560;14.368;2024-03-25T06:56:50;0.53;;;0.53;;
65552;SDS011;72126;51.560;14.368;2024-03-25T06:59:15;0.60;;;0.60;;
65552;SDS011;72126;51.560;14.368;2024-03-25T07:01:40;0.80;;;0.80;;
65552;SDS011;72126;51.560;14.368;2024-03-25T07:04:05;1.77;;;0.80;;
65552;SDS011;72126;51.560;14.368;2024-03-25T07:06:31;1.47;;;0.80;;
65552;SDS011;72126;51.560;14.368;2024-03-25T07:08:56;1.45;;;1.00;;
65552;SDS011;72126;51.560;14.368;2024-03-25T07:11:21;0.87;;;0.80;;
65552;SDS011;72126;51.560;14.368;2024-03-25T07:13:46;0.70;;;0.70;;
65552;SDS011;72126;51.560;14.368;2024-03-25T07:16:11;0.97;;;0.97;;
65552;SDS011;72126;51.560;14.368;2024-03-25T07:18:37;0.83;;;0.80;;
65552;SDS011;72126;51.560;14.368;2024-03-25T07:21:02;0.90;;;0.80;;
65552;SDS011;72126;51.560;14.368;2024-03-25T07:23:27;1.25;;;0.80;;
65552;SDS011;72126;51.560;14.368;2024-03-25T07:25:52;0.73;;;0.73;;
65552;SDS011;72126;51.560;14.368;2024-03-25T07:28:18;1.37;;;0.90;;
65552;SDS011;72126;51.560;14.368;2024-03-25T07:30:43;0.63;;;0.63;;
65552;SDS011;72126;51.560;14.368;2024-03-25T07:33:08;0.83;;;0.80;;
65552;SDS011;72126;51.560;14.368;2024-03-25T07:35:33;0.95;;;0.73;;
65552;SDS011;72126;51.560;14.368;2024-03-25T07:37:58;0.90;;;0.90;;
65552;SDS011;72126;51.560;14.368;2024-03-25T07:40:23;0.83;;;0.83;;
65552;SDS011;72126;51.560;14.368;2024-03-25T07:42:49;1.57;;;0.80;;
65552;SDS011;72126;51.560;14.368;2024-03-25T07:45:14;0.70;;;0.70;;
65552;SDS011;72126;51.560;14.368;2024-03-25T07:47:39;1.00;;;0.90;;
65552;SDS011;72126;51.560;14.368;2024-03-25T07:50:05;1.38;;;0.80;;
65552;SDS011;72126;51.560;14.368;2024-03-25T07:52:31;2.08;;;0.90;;
65552;SDS011;72126;51.560;14.368;2024-03-25T07:54:56;0.85;;;0.80;;
65552;SDS011;72126;51.560;14.368;2024-03-25T07:57:21;1.10;;;1.00;;
65552;SDS011;72126;51.560;14.368;2024-03-25T07:59:46;1.67;;;1.00;;
65552;SDS011;72126;51.560;14.368;2024-03-25T08:02:12;1.00;;;0.90;;
65552;SDS011;72126;51.560;14.368;2024-03-25T08:04:37;1.60;;;1.10;;
65552;SDS011;72126;51.560;14.368;2024-03-25T08:07:02;1.80;;;1.00;;
65552;SDS011;72126;51.560;14.368;2024-03-25T08:09:28;1.55;;;0.88;;
65552;SDS011;72126;51.560;14.368;2024-03-25T08:11:54;1.05;;;0.95;;
65552;SDS011;72126;51.560;14.368;2024-03-25T08:14:19;1.00;;;0.90;;
65552;SDS011;72126;51.560;14.368;2024-03-25T08:16:44;1.00;;;1.00;;
65552;SDS011;72126;51.560;14.368;2024-03-25T08:19:09;0.90;;;0.80;;
65552;SDS011;72126;51.560;14.368;2024-03-25T08:21:34;1.03;;;0.90;;
65552;SDS011;72126;51.560;14.368;2024-03-25T08:24:00;0.80;;;0.80;;
65552;SDS011;72126;51.560;14.368;2024-03-25T08:26:25;1.40;;;0.90;;
65552;SDS011;72126;51.560;14.368;2024-03-25T08:28:50;0.83;;;0.83;;
65552;SDS011;72126;51.560;14.368;2024-03-25T08:31:15;1.03;;;0.80;;
65552;SDS011;72126;51.560;14.368;2024-03-25T08:33:40;1.30;;;1.10;;
65552;SDS011;72126;51.560;14.368;2024-03-25T08:36:06;1.20;;;1.10;;
65552;SDS011;72126;51.560;14.368;2024-03-25T08:38:31;1.02;;;1.00;;
65552;SDS011;72126;51.560;14.368;2024-03-25T08:40:56;0.97;;;0.97;;
65552;SDS011;72126;51.560;14.368;2024-03-25T08:43:21;1.27;;;1.03;;
65552;SDS011;72126;51.560;14.368;2024-03-25T08:45:47;1.80;;;1.03;;
65552;SDS011;72126;51.560;14.368;2024-03-25T08:48:12;1.30;;;1.20;;
65552;SDS011;72126;51.560;14.368;2024-03-25T08:50:37;2.45;;;1.00;;
65552;SDS011;72126;51.560;14.368;2024-03-25T08:53:02;1.00;;;1.00;;
65552;SDS011;72126;51.560;14.368;2024-03-25T08:55:28;1.05;;;1.00;;
65552;SDS011;72126;51.560;14.368;2024-03-25T08:57:54;1.40;;;1.00;;
65552;SDS011;72126;51.560;14.368;2024-03-25T09:00:19;2.13;;;1.23;;
65552;SDS011;72126;51.560;14.368;2024-03-25T09:02:44;1.13;;;1.00;;
65552;SDS011;72126;51.560;14.368;2024-03-25T09:05:09;1.00;;;0.90;;
65552;SDS011;72126;51.560;14.368;2024-03-25T09:07:35;1.73;;;0.88;;
65552;SDS011;72126;51.560;14.368;2024-03-25T09:10:00;1.67;;;1.00;;
65552;SDS011;72126;51.560;14.368;2024-03-25T09:12:25;0.90;;;0.80;;
65552;SDS011;72126;51.560;14.368;2024-03-25T09:14:51;0.80;;;0.80;;
65552;SDS011;72126;51.560;14.368;2024-03-25T09:17:16;2.90;;;1.10;;
65552;SDS011;72126;51.560;14.368;2024-03-25T09:19:41;1.33;;;1.20;;
65552;SDS011;72126;51.560;14.368;2024-03-25T09:22:06;1.00;;;0.90;;
65552;SDS011;72126;51.560;14.368;2024-03-25T09:24:31;1.27;;;1.00;;
65552;SDS011;72126;51.560;14.368;2024-03-25T09:26:56;1.53;;;0.93;;
65552;SDS011;72126;51.560;14.368;2024-03-25T09:29:22;1.10;;;1.00;;
65552;SDS011;72126;51.560;14.368;2024-03-25T09:31:47;1.80;;;1.30;;
65552;SDS011;72126;51.560;14.368;2024-03-25T09:34:12;1.00;;;0.80;;
65552;SDS011;72126;51.560;14.368;2024-03-25T09:36:37;1.27;;;1.13;;
65552;SDS011;72126;51.560;14.368;2024-03-25T09:39:02;2.10;;;1.27;;
65552;SDS011;72126;51.560;14.368;2024-03-25T09:41:28;0.80;;;0.80;;
65552;SDS011;72126;51.560;14.368;2024-03-25T09:43:56;1.25;;;1.10;;
65552;SDS011;72126;51.560;14.368;2024-03-25T09:46:21;1.20;;;1.10;;
65552;SDS011;72126;51.560;14.368;2024-03-25T09:48:47;1.10;;;1.00;;
65552;SDS011;72126;51.560;14.368;2024-03-25T09:51:13;1.23;;;1.00;;
65552;SDS011;72126;51.560;14.368;2024-03-25T09:53:38;1.20;;;1.10;;
65552;SDS011;72126;51.560;14.368;2024-03-25T09:56:04;1.63;;;1.10;;
65552;SDS011;72126;51.560;14.368;2024-03-25T09:58:30;1.35;;;1.20;;
65552;SDS011;72126;51.560;14.368;2024-03-25T10:00:56;1.00;;;0.90;;
65552;SDS011;72126;51.560;14.368;2024-03-25T10:03:21;2.08;;;1.02;;
65552;SDS011;72126;51.560;14.368;2024-03-25T10:05:47;1.15;;;1.02;;
65552;SDS011;72126;51.560;14.368;2024-03-25T10:08:12;1.45;;;1.20;;
65552;SDS011;72126;51.560;14.368;2024-03-25T10:10:37;1.10;;;1.00;;
65552;SDS011;72126;51.560;14.368;2024-03-25T10:13:06;1.95;;;1.20;;
65552;SDS011;72126;51.560;14.368;2024-03-25T10:15:32;1.15;;;0.90;;
65552;SDS011;72126;51.560;14.368;2024-03-25T10:17:57;1.10;;;1.00;;
65552;SDS011;72126;51.560;14.368;2024-03-25T10:20:23;1.00;;;0.90;;
65552;SDS011;72126;51.560;14.368;2024-03-25T10:22:48;1.23;;;1.02;;
65552;SDS011;72126;51.560;14.368;2024-03-25T10:25:26;1.10;;;1.00;;
65552;SDS011;72126;51.560;14.368;2024-03-25T10:27:56;1.17;;;1.08;;
65552;SDS011;72126;51.560;14.368;2024-03-25T10:30:22;1.83;;;1.10;;
65552;SDS011;72126;51.560;14.368;2024-03-25T10:33:00;1.02;;;0.90;;
65552;SDS011;72126;51.560;14.368;2024-03-25T10:35:26;1.30;;;1.20;;
65552;SDS011;72126;51.560;14.368;2024-03-25T10:37:57;1.10;;;1.00;;
65552;SDS011;72126;51.560;14.368;2024-03-25T10:40:26;1.60;;;1.00;;
65552;SDS011;72126;51.560;14.368;2024-03-25T10:42:54;1.55;;;1.20;;
65552;SDS011;72126;51.560;14.368;2024-03-25T10:45:25;1.90;;;1.30;;
65552;SDS011;72126;51.560;14.368;2024-03-25T10:47:50;1.48;;;1.02;;
65552;SDS011;72126;51.560;14.368;2024-03-25T10:50:16;1.38;;;1.10;;
65552;SDS011;72126;51.560;14.368;2024-03-25T10:52:50;2.17;;;1.20;;
65552;SDS011;72126;51.560;14.368;2024-03-25T10:55:18;1.38;;;1.10;;
65552;SDS011;72126;51.560;14.368;2024-03-25T10:57:45;1.80;;;0.93;;
65552;SDS011;72126;51.560;14.368;2024-03-25T11:00:12;1.77;;;1.17;;
65552;SDS011;72126;51.560;14.368;2024-03-25T11:02:38;1.65;;;1.40;;
65552;SDS011;72126;51.560;14.368;2024-03-25T11:05:03;2.30;;;1.20;;
65552;SDS011;72126;51.560;14.368;2024-03-25T11:07:32;1.40;;;1.20;;
65552;SDS011;72126;51.560;14.368;2024-03-25T11:10:04;1.73;;;1.33;;
65552;SDS011;72126;51.560;14.368;2024-03-25T11:12:34;1.63;;;1.23;;
65552;SDS011;72126;51.560;14.368;2024-03-25T11:15:03;1.40;;;1.10;;
65552;SDS011;72126;51.560;14.368;2024-03-25T11:17:30;2.05;;;1.55;;
65552;SDS011;72126;51.560;14.368;2024-03-25T11:20:08;2.97;;;1.20;;
65552;SDS011;72126;51.560;14.368;2024-03-25T11:22:34;1.52;;;1.30;;
65552;SDS011;72126;51.560;14.368;2024-03-25T11:25:06;1.20;;;1.10;;
65552;SDS011;72126;51.560;14.368;2024-03-25T11:27:31;1.42;;;1.27;;
65552;SDS011;72126;51.560;14.368;2024-03-25T11:29:57;1.23;;;1.10;;
65552;SDS011;72126;51.560;14.368;2024-03-25T11:32:25;1.40;;;1.30;;
65552;SDS011;72126;51.560;14.368;2024-03-25T11:34:51;2.00;;;1.10;;
65552;SDS011;72126;51.560;14.368;2024-03-25T11:37:17;1.67;;;1.20;;
65552;SDS011;72126;51.560;14.368;2024-03-25T11:39:42;1.70;;;1.20;;
65552;SDS011;72126;51.560;14.368;2024-03-25T11:42:08;1.40;;;1.13;;
65552;SDS011;72126;51.560;14.368;2024-03-25T11:44:37;1.08;;;0.98;;
65552;SDS011;72126;51.560;14.368;2024-03-25T11:47:03;1.90;;;1.10;;
65552;SDS011;72126;51.560;14.368;2024-03-25T11:49:29;1.77;;;1.27;;
65552;SDS011;72126;51.560;14.368;2024-03-25T11:51:54;1.75;;;1.25;;
65552;SDS011;72126;51.560;14.368;2024-03-25T11:54:19;1.30;;;1.20;;
65552;SDS011;72126;51.560;14.368;2024-03-25T11:56:44;1.20;;;1.10;;
65552;SDS011;72126;51.560;14.368;2024-03-25T11:59:09;1.23;;;1.07;;
65552;SDS011;72126;51.560;14.368;2024-03-25T12:01:35;1.38;;;1.00;;
65552;SDS011;72126;51.560;14.368;2024-03-25T12:04:12;1.45;;;1.10;;
65552;SDS011;72126;51.560;14.368;2024-03-25T12:06:41;1.40;;;1.25;;
65552;SDS011;72126;51.560;14.368;2024-03-25T12:09:06;1.80;;;1.40;;
65552;SDS011;72126;51.560;14.368;2024-03-25T12:11:31;1.47;;;1.10;;
65552;SDS011;72126;51.560;14.368;2024-03-25T12:13:57;1.30;;;1.20;;
65552;SDS011;72126;51.560;14.368;2024-03-25T12:16:24;1.63;;;1.10;;
65552;SDS011;72126;51.560;14.368;2024-03-25T12:18:49;1.10;;;1.00;;
65552;SDS011;72126;51.560;14.368;2024-03-25T12:21:15;1.20;;;1.10;;
65552;SDS011;72126;51.560;14.368;2024-03-25T12:23:41;0.98;;;0.90;;
65552;SDS011;72126;51.560;14.368;2024-03-25T12:26:07;1.10;;;1.10;;
65552;SDS011;72126;51.560;14.368;2024-03-25T12:28:33;1.33;;;1.13;;
65552;SDS011;72126;51.560;14.368;2024-03-25T12:30:58;2.40;;;1.23;;
65552;SDS011;72126;51.560;14.368;2024-03-25T12:33:23;1.30;;;1.03;;
65552;SDS011;72126;51.560;14.368;2024-03-25T12:35:49;1.27;;;1.10;;
65552;SDS011;72126;51.560;14.368;2024-03-25T12:38:25;2.33;;;1.10;;
65552;SDS011;72126;51.560;14.368;2024-03-25T12:40:51;1.23;;;1.08;;
65552;SDS011;72126;51.560;14.368;2024-03-25T12:43:16;2.58;;;1.05;;
65552;SDS011;72126;51.560;14.368;2024-03-25T12:45:42;0.90;;;0.90;;
65552;SDS011;72126;51.560;14.368;2024-03-25T12:48:07;2.08;;;1.40;;
65552;SDS011;72126;51.560;14.368;2024-03-25T12:50:33;0.98;;;0.95;;
65552;SDS011;72126;51.560;14.368;2024-03-25T12:52:58;1.90;;;1.30;;
65552;SDS011;72126;51.560;14.368;2024-03-25T12:55:23;1.50;;;1.10;;
65552;SDS011;72126;51.560;14.368;2024-03-25T12:57:48;1.67;;;1.37;;
65552;SDS011;72126;51.560;14.368;2024-03-25T13:00:14;1.30;;;1.17;;
65552;SDS011;72126;51.560;14.368;2024-03-25T13:02:40;1.55;;;1.10;;
65552;SDS011;72126;51.560;14.368;2024-03-25T13:05:05;1.77;;;1.08;;
65552;SDS011;72126;51.560;14.368;2024-03-25T13:07:30;2.28;;;1.13;;
65552;SDS011;72126;51.560;14.368;2024-03-25T13:09:55;0.98;;;0.93;;
65552;SDS011;72126;51.560;14.368;2024-03-25T13:12:21;1.57;;;1.00;;
65552;SDS011;72126;51.560;14.368;2024-03-25T13:14:46;1.65;;;1.13;;
65552;SDS011;72126;51.560;14.368;2024-03-25T13:17:11;1.38;;;1.23;;
65552;SDS011;72126;51.560;14.368;2024-03-25T13:19:36;1.07;;;0.97;;
65552;SDS011;72126;51.560;14.368;2024-03-25T13:22:01;1.43;;;1.17;;
65552;SDS011;72126;51.560;14.368;2024-03-25T13:24:27;1.40;;;1.20;;
65552;SDS011;72126;51.560;14.368;2024-03-25T13:26:52;1.67;;;1.27;;
65552;SDS011;72126;51.560;14.368;2024-03-25T13:29:17;1.00;;;0.90;;
65552;SDS011;72126;51.560;14.368;2024-03-25T13:31:42;1.63;;;1.00;;
65552;SDS011;72126;51.560;14.368;2024-03-25T13:34:07;2.50;;;1.00;;
65552;SDS011;72126;51.560;14.368;2024-03-25T13:36:32;1.27;;;1.13;;
65552;SDS011;72126;51.560;14.368;2024-03-25T13:38:58;1.10;;;1.00;;
65552;SDS011;72126;51.560;14.368;2024-03-25T13:41:23;1.58;;;1.10;;
65552;SDS011;72126;51.560;14.368;2024-03-25T13:43:48;1.47;;;1.00;;
65552;SDS011;72126;51.560;14.368;2024-03-25T13:46:13;1.07;;;1.00;;
65552;SDS011;72126;51.560;14.368;2024-03-25T13:48:39;1.90;;;1.02;;
65552;SDS011;72126;51.560;14.368;2024-03-25T13:51:04;1.27;;;1.02;;
65552;SDS011;72126;51.560;14.368;2024-03-25T13:53:29;1.60;;;1.10;;
65552;SDS011;72126;51.560;14.368;2024-03-25T13:55:54;1.43;;;1.33;;
65552;SDS011;72126;51.560;14.368;2024-03-25T13:58:20;2.30;;;1.02;;
65552;SDS011;72126;51.560;14.368;2024-03-25T14:00:45;1.57;;;1.10;;
65552;SDS011;72126;51.560;14.368;2024-03-25T14:03:10;1.83;;;1.30;;
65552;SDS011;72126;51.560;14.368;2024-03-25T14:05:35;1.23;;;1.13;;
65552;SDS011;72126;51.560;14.368;2024-03-25T14:08:00;1.13;;;1.10;;
65552;SDS011;72126;51.560;14.368;2024-03-25T14:10:25;1.30;;;1.20;;
65552;SDS011;72126;51.560;14.368;2024-03-25T14:12:51;1.00;;;0.90;;
65552;SDS011;72126;51.560;14.368;2024-03-25T14:15:16;1.40;;;1.03;;
65552;SDS011;72126;51.560;14.368;2024-03-25T14:17:41;0.90;;;0.90;;
65552;SDS011;72126;51.560;14.368;2024-03-25T14:20:06;2.53;;;0.97;;
65552;SDS011;72126;51.560;14.368;2024-03-25T14:22:32;1.08;;;0.98;;
65552;SDS011;72126;51.560;14.368;2024-03-25T14:24:58;1.25;;;1.00;;